Froid, Montana
Current Conditions -  °F | °C
As of 12:52 PM on Sunday 23 Nov 2014 (Local Time) from KISN Reporting Station
Overcast Overcast  
Wind Chill:   Ceiling: 2400
Heat Index: 21°   Visibility: 10mi
Dew Point: 12°   Wind: 25mph
Humidity: 68%   Direction: 320°NW
Pressure: 29.74"   Gusts: 30mph
Location:  48.33°N, 104.5°W
Report Text: KISN 231952Z AUTO 32022G26KT 10SM OVC024 M06/M11 A2974 RMK AO2 PK WND 31029/1915 SNB1857E36 SLP096 P0000 T10611111
Loading
Personal Weather Stations






























Interactive Weather Map New forecast layout! Learn more

10-Day Weather Forecast

Advertisements
Track Severe Weather on mobile